sensor_id;sensor_type;location;lat;lon;timestamp;P1;durP1;ratioP1;P2;durP2;ratioP2
13040;SDS011;6587;42.728;23.288;2023-11-21T00:01:16;117.83;;;54.13;;
13040;SDS011;6587;42.728;23.288;2023-11-21T00:03:43;117.80;;;57.70;;
13040;SDS011;6587;42.728;23.288;2023-11-21T00:06:10;119.00;;;56.07;;
13040;SDS011;6587;42.728;23.288;2023-11-21T00:08:37;95.20;;;49.23;;
13040;SDS011;6587;42.728;23.288;2023-11-21T00:11:04;88.97;;;44.80;;
13040;SDS011;6587;42.728;23.288;2023-11-21T00:13:31;92.23;;;44.80;;
13040;SDS011;6587;42.728;23.288;2023-11-21T00:15:59;85.67;;;41.80;;
13040;SDS011;6587;42.728;23.288;2023-11-21T00:18:27;62.23;;;35.13;;
13040;SDS011;6587;42.728;23.288;2023-11-21T00:20:54;72.30;;;38.83;;
13040;SDS011;6587;42.728;23.288;2023-11-21T00:23:20;87.10;;;43.87;;
13040;SDS011;6587;42.728;23.288;2023-11-21T00:25:47;87.83;;;46.60;;
13040;SDS011;6587;42.728;23.288;2023-11-21T00:28:14;73.00;;;38.23;;
13040;SDS011;6587;42.728;23.288;2023-11-21T00:30:41;81.13;;;41.27;;
13040;SDS011;6587;42.728;23.288;2023-11-21T00:33:08;77.30;;;42.63;;
13040;SDS011;6587;42.728;23.288;2023-11-21T00:35:36;76.77;;;41.13;;
13040;SDS011;6587;42.728;23.288;2023-11-21T00:38:03;73.70;;;38.80;;
13040;SDS011;6587;42.728;23.288;2023-11-21T00:40:31;79.10;;;39.20;;
13040;SDS011;6587;42.728;23.288;2023-11-21T00:43:00;59.07;;;32.03;;
13040;SDS011;6587;42.728;23.288;2023-11-21T00:45:26;57.57;;;30.03;;
13040;SDS011;6587;42.728;23.288;2023-11-21T00:47:53;43.70;;;22.07;;
13040;SDS011;6587;42.728;23.288;2023-11-21T00:50:21;69.17;;;34.53;;
13040;SDS011;6587;42.728;23.288;2023-11-21T00:52:49;67.67;;;35.10;;
13040;SDS011;6587;42.728;23.288;2023-11-21T00:55:17;67.73;;;31.90;;
13040;SDS011;6587;42.728;23.288;2023-11-21T00:57:44;64.93;;;31.50;;
13040;SDS011;6587;42.728;23.288;2023-11-21T01:00:11;53.33;;;28.73;;
13040;SDS011;6587;42.728;23.288;2023-11-21T01:02:42;59.33;;;29.10;;
13040;SDS011;6587;42.728;23.288;2023-11-21T01:05:09;43.13;;;26.23;;
13040;SDS011;6587;42.728;23.288;2023-11-21T01:07:36;51.80;;;26.87;;
13040;SDS011;6587;42.728;23.288;2023-11-21T01:10:05;31.93;;;17.93;;
13040;SDS011;6587;42.728;23.288;2023-11-21T01:12:34;40.03;;;23.00;;
13040;SDS011;6587;42.728;23.288;2023-11-21T01:15:01;39.73;;;20.57;;
13040;SDS011;6587;42.728;23.288;2023-11-21T01:17:28;32.80;;;18.70;;
13040;SDS011;6587;42.728;23.288;2023-11-21T01:19:54;47.80;;;26.40;;
13040;SDS011;6587;42.728;23.288;2023-11-21T01:22:23;53.47;;;26.83;;
13040;SDS011;6587;42.728;23.288;2023-11-21T01:24:52;46.93;;;25.03;;
13040;SDS011;6587;42.728;23.288;2023-11-21T01:27:21;40.47;;;22.77;;
13040;SDS011;6587;42.728;23.288;2023-11-21T01:29:48;55.23;;;28.53;;
13040;SDS011;6587;42.728;23.288;2023-11-21T01:32:18;46.27;;;25.93;;
13040;SDS011;6587;42.728;23.288;2023-11-21T01:34:45;60.27;;;29.33;;
13040;SDS011;6587;42.728;23.288;2023-11-21T01:37:12;57.50;;;27.90;;
13040;SDS011;6587;42.728;23.288;2023-11-21T01:39:39;55.37;;;29.43;;
13040;SDS011;6587;42.728;23.288;2023-11-21T01:42:06;54.63;;;29.73;;
13040;SDS011;6587;42.728;23.288;2023-11-21T01:44:34;57.03;;;29.83;;
13040;SDS011;6587;42.728;23.288;2023-11-21T01:47:01;55.13;;;30.03;;
13040;SDS011;6587;42.728;23.288;2023-11-21T01:49:31;61.23;;;31.03;;
13040;SDS011;6587;42.728;23.288;2023-11-21T01:51:59;59.17;;;29.07;;
13040;SDS011;6587;42.728;23.288;2023-11-21T01:54:27;62.43;;;30.37;;
13040;SDS011;6587;42.728;23.288;2023-11-21T01:56:56;56.60;;;30.20;;
13040;SDS011;6587;42.728;23.288;2023-11-21T01:59:29;58.70;;;28.60;;
13040;SDS011;6587;42.728;23.288;2023-11-21T02:02:03;57.30;;;28.63;;
13040;SDS011;6587;42.728;23.288;2023-11-21T02:04:31;59.70;;;30.17;;
13040;SDS011;6587;42.728;23.288;2023-11-21T02:06:59;59.17;;;31.17;;
13040;SDS011;6587;42.728;23.288;2023-11-21T02:09:26;60.67;;;29.03;;
13040;SDS011;6587;42.728;23.288;2023-11-21T02:11:54;50.67;;;24.90;;
13040;SDS011;6587;42.728;23.288;2023-11-21T02:14:23;55.90;;;26.10;;
13040;SDS011;6587;42.728;23.288;2023-11-21T02:16:50;39.83;;;23.23;;
13040;SDS011;6587;42.728;23.288;2023-11-21T02:19:20;43.27;;;20.87;;
13040;SDS011;6587;42.728;23.288;2023-11-21T02:21:51;35.43;;;18.27;;
13040;SDS011;6587;42.728;23.288;2023-11-21T02:24:21;28.17;;;14.93;;
13040;SDS011;6587;42.728;23.288;2023-11-21T02:26:48;27.17;;;15.37;;
13040;SDS011;6587;42.728;23.288;2023-11-21T02:29:16;25.90;;;14.43;;
13040;SDS011;6587;42.728;23.288;2023-11-21T02:31:45;29.07;;;15.73;;
13040;SDS011;6587;42.728;23.288;2023-11-21T02:34:15;26.53;;;14.20;;
13040;SDS011;6587;42.728;23.288;2023-11-21T02:36:42;27.80;;;16.43;;
13040;SDS011;6587;42.728;23.288;2023-11-21T02:39:09;41.83;;;23.93;;
13040;SDS011;6587;42.728;23.288;2023-11-21T02:41:38;44.33;;;26.97;;
13040;SDS011;6587;42.728;23.288;2023-11-21T02:44:05;48.93;;;25.70;;
13040;SDS011;6587;42.728;23.288;2023-11-21T02:46:32;45.37;;;24.23;;
13040;SDS011;6587;42.728;23.288;2023-11-21T02:49:00;40.97;;;24.83;;
13040;SDS011;6587;42.728;23.288;2023-11-21T02:51:27;46.83;;;22.87;;
13040;SDS011;6587;42.728;23.288;2023-11-21T02:53:54;39.43;;;22.80;;
13040;SDS011;6587;42.728;23.288;2023-11-21T02:56:24;33.63;;;18.43;;
13040;SDS011;6587;42.728;23.288;2023-11-21T02:58:54;37.33;;;20.67;;
13040;SDS011;6587;42.728;23.288;2023-11-21T03:01:23;48.30;;;23.17;;
13040;SDS011;6587;42.728;23.288;2023-11-21T03:03:50;46.00;;;23.43;;
13040;SDS011;6587;42.728;23.288;2023-11-21T03:06:17;44.03;;;23.67;;
13040;SDS011;6587;42.728;23.288;2023-11-21T03:08:46;47.37;;;23.13;;
13040;SDS011;6587;42.728;23.288;2023-11-21T03:11:13;40.63;;;21.50;;
13040;SDS011;6587;42.728;23.288;2023-11-21T03:13:40;42.80;;;22.57;;
13040;SDS011;6587;42.728;23.288;2023-11-21T03:16:09;40.80;;;22.90;;
13040;SDS011;6587;42.728;23.288;2023-11-21T03:18:37;41.43;;;22.97;;
13040;SDS011;6587;42.728;23.288;2023-11-21T03:21:04;42.40;;;24.00;;
13040;SDS011;6587;42.728;23.288;2023-11-21T03:23:32;49.47;;;24.73;;
13040;SDS011;6587;42.728;23.288;2023-11-21T03:25:59;47.33;;;22.27;;
13040;SDS011;6587;42.728;23.288;2023-11-21T03:28:26;46.33;;;24.90;;
13040;SDS011;6587;42.728;23.288;2023-11-21T03:30:56;48.50;;;24.50;;
13040;SDS011;6587;42.728;23.288;2023-11-21T03:33:24;50.07;;;25.57;;
13040;SDS011;6587;42.728;23.288;2023-11-21T03:35:51;53.63;;;27.03;;
13040;SDS011;6587;42.728;23.288;2023-11-21T03:38:18;50.47;;;27.20;;
13040;SDS011;6587;42.728;23.288;2023-11-21T03:40:45;55.13;;;27.87;;
13040;SDS011;6587;42.728;23.288;2023-11-21T03:43:13;54.23;;;28.30;;
13040;SDS011;6587;42.728;23.288;2023-11-21T03:45:39;57.97;;;27.80;;
13040;SDS011;6587;42.728;23.288;2023-11-21T03:48:06;57.10;;;28.87;;
13040;SDS011;6587;42.728;23.288;2023-11-21T03:50:38;60.83;;;30.87;;
13040;SDS011;6587;42.728;23.288;2023-11-21T03:53:05;61.13;;;33.17;;
13040;SDS011;6587;42.728;23.288;2023-11-21T03:55:32;75.10;;;35.90;;
13040;SDS011;6587;42.728;23.288;2023-11-21T03:57:59;74.57;;;37.90;;
13040;SDS011;6587;42.728;23.288;2023-11-21T04:00:26;80.80;;;37.47;;
13040;SDS011;6587;42.728;23.288;2023-11-21T04:02:54;71.70;;;34.60;;
13040;SDS011;6587;42.728;23.288;2023-11-21T04:05:21;69.93;;;35.10;;
13040;SDS011;6587;42.728;23.288;2023-11-21T04:07:50;72.30;;;35.53;;
13040;SDS011;6587;42.728;23.288;2023-11-21T04:10:17;81.90;;;37.10;;
13040;SDS011;6587;42.728;23.288;2023-11-21T04:12:44;85.40;;;38.53;;
13040;SDS011;6587;42.728;23.288;2023-11-21T04:15:11;84.27;;;41.37;;
13040;SDS011;6587;42.728;23.288;2023-11-21T04:17:39;82.03;;;40.50;;
13040;SDS011;6587;42.728;23.288;2023-11-21T04:20:06;77.73;;;37.77;;
13040;SDS011;6587;42.728;23.288;2023-11-21T04:22:36;67.00;;;34.23;;
13040;SDS011;6587;42.728;23.288;2023-11-21T04:25:07;65.73;;;31.57;;
13040;SDS011;6587;42.728;23.288;2023-11-21T04:27:34;58.00;;;31.60;;
13040;SDS011;6587;42.728;23.288;2023-11-21T04:30:01;58.77;;;30.13;;
13040;SDS011;6587;42.728;23.288;2023-11-21T04:32:29;50.07;;;25.83;;
13040;SDS011;6587;42.728;23.288;2023-11-21T04:34:55;46.70;;;23.67;;
13040;SDS011;6587;42.728;23.288;2023-11-21T04:37:23;36.63;;;21.97;;
13040;SDS011;6587;42.728;23.288;2023-11-21T04:39:49;43.50;;;23.27;;
13040;SDS011;6587;42.728;23.288;2023-11-21T04:42:18;44.97;;;24.63;;
13040;SDS011;6587;42.728;23.288;2023-11-21T04:44:45;40.20;;;23.57;;
13040;SDS011;6587;42.728;23.288;2023-11-21T04:47:12;44.70;;;26.13;;
13040;SDS011;6587;42.728;23.288;2023-11-21T04:49:41;49.97;;;28.13;;
13040;SDS011;6587;42.728;23.288;2023-11-21T04:52:08;58.07;;;34.47;;
13040;SDS011;6587;42.728;23.288;2023-11-21T04:54:36;61.47;;;35.20;;
13040;SDS011;6587;42.728;23.288;2023-11-21T04:57:03;46.03;;;25.27;;
13040;SDS011;6587;42.728;23.288;2023-11-21T04:59:31;45.47;;;25.87;;
13040;SDS011;6587;42.728;23.288;2023-11-21T05:01:58;46.67;;;28.23;;
13040;SDS011;6587;42.728;23.288;2023-11-21T05:04:25;57.50;;;33.07;;
13040;SDS011;6587;42.728;23.288;2023-11-21T05:06:52;62.07;;;36.23;;
13040;SDS011;6587;42.728;23.288;2023-11-21T05:09:19;112.50;;;48.80;;
13040;SDS011;6587;42.728;23.288;2023-11-21T05:11:47;103.40;;;48.67;;
13040;SDS011;6587;42.728;23.288;2023-11-21T05:14:14;138.20;;;59.97;;
13040;SDS011;6587;42.728;23.288;2023-11-21T05:16:42;108.47;;;56.50;;
13040;SDS011;6587;42.728;23.288;2023-11-21T05:19:09;98.53;;;54.10;;
13040;SDS011;6587;42.728;23.288;2023-11-21T05:21:38;113.57;;;56.27;;
13040;SDS011;6587;42.728;23.288;2023-11-21T05:24:05;101.43;;;51.83;;
13040;SDS011;6587;42.728;23.288;2023-11-21T05:26:32;98.30;;;51.23;;
13040;SDS011;6587;42.728;23.288;2023-11-21T05:28:59;101.73;;;51.73;;
13040;SDS011;6587;42.728;23.288;2023-11-21T05:31:26;112.80;;;55.90;;
13040;SDS011;6587;42.728;23.288;2023-11-21T05:33:54;136.63;;;65.60;;
13040;SDS011;6587;42.728;23.288;2023-11-21T05:36:22;130.07;;;60.07;;
13040;SDS011;6587;42.728;23.288;2023-11-21T05:38:49;117.30;;;54.63;;
13040;SDS011;6587;42.728;23.288;2023-11-21T05:41:16;105.53;;;51.93;;
13040;SDS011;6587;42.728;23.288;2023-11-21T05:43:42;103.77;;;51.57;;
13040;SDS011;6587;42.728;23.288;2023-11-21T05:46:09;95.67;;;48.57;;
13040;SDS011;6587;42.728;23.288;2023-11-21T05:48:36;85.10;;;43.43;;
13040;SDS011;6587;42.728;23.288;2023-11-21T05:51:05;87.13;;;44.40;;
13040;SDS011;6587;42.728;23.288;2023-11-21T05:53:33;91.20;;;43.80;;
13040;SDS011;6587;42.728;23.288;2023-11-21T05:56:00;86.47;;;44.63;;
13040;SDS011;6587;42.728;23.288;2023-11-21T05:58:29;87.17;;;47.50;;
13040;SDS011;6587;42.728;23.288;2023-11-21T06:00:55;100.53;;;50.13;;
13040;SDS011;6587;42.728;23.288;2023-11-21T06:03:22;98.20;;;49.27;;
13040;SDS011;6587;42.728;23.288;2023-11-21T06:05:50;100.23;;;49.90;;
13040;SDS011;6587;42.728;23.288;2023-11-21T06:08:18;87.43;;;45.90;;
13040;SDS011;6587;42.728;23.288;2023-11-21T06:10:45;55.90;;;31.47;;
13040;SDS011;6587;42.728;23.288;2023-11-21T06:13:14;54.67;;;26.83;;
13040;SDS011;6587;42.728;23.288;2023-11-21T06:15:41;35.23;;;20.47;;
13040;SDS011;6587;42.728;23.288;2023-11-21T06:18:08;37.17;;;18.27;;
13040;SDS011;6587;42.728;23.288;2023-11-21T06:20:36;34.57;;;18.00;;
13040;SDS011;6587;42.728;23.288;2023-11-21T06:23:03;37.87;;;18.53;;
13040;SDS011;6587;42.728;23.288;2023-11-21T06:25:32;32.73;;;18.33;;
13040;SDS011;6587;42.728;23.288;2023-11-21T06:28:01;32.30;;;17.57;;
13040;SDS011;6587;42.728;23.288;2023-11-21T06:30:28;33.90;;;17.47;;
13040;SDS011;6587;42.728;23.288;2023-11-21T06:32:55;35.03;;;19.17;;
13040;SDS011;6587;42.728;23.288;2023-11-21T06:35:22;38.97;;;20.83;;
13040;SDS011;6587;42.728;23.288;2023-11-21T06:37:49;34.47;;;18.60;;
13040;SDS011;6587;42.728;23.288;2023-11-21T06:40:17;29.80;;;18.57;;
13040;SDS011;6587;42.728;23.288;2023-11-21T06:42:46;32.20;;;17.87;;
13040;SDS011;6587;42.728;23.288;2023-11-21T06:45:13;37.47;;;19.20;;
13040;SDS011;6587;42.728;23.288;2023-11-21T06:47:40;30.53;;;18.93;;
13040;SDS011;6587;42.728;23.288;2023-11-21T06:50:07;40.40;;;24.83;;
13040;SDS011;6587;42.728;23.288;2023-11-21T06:52:34;35.70;;;23.27;;
13040;SDS011;6587;42.728;23.288;2023-11-21T06:55:01;47.57;;;24.67;;
13040;SDS011;6587;42.728;23.288;2023-11-21T06:57:28;46.83;;;28.63;;
13040;SDS011;6587;42.728;23.288;2023-11-21T06:59:57;56.17;;;30.90;;
13040;SDS011;6587;42.728;23.288;2023-11-21T07:02:24;54.97;;;32.23;;
13040;SDS011;6587;42.728;23.288;2023-11-21T07:04:51;48.30;;;31.73;;
13040;SDS011;6587;42.728;23.288;2023-11-21T07:07:18;57.33;;;34.67;;
13040;SDS011;6587;42.728;23.288;2023-11-21T07:09:45;60.40;;;35.87;;
13040;SDS011;6587;42.728;23.288;2023-11-21T07:12:13;66.97;;;36.80;;
13040;SDS011;6587;42.728;23.288;2023-11-21T07:14:40;57.47;;;35.77;;
13040;SDS011;6587;42.728;23.288;2023-11-21T07:17:11;57.00;;;35.23;;
13040;SDS011;6587;42.728;23.288;2023-11-21T07:19:38;62.30;;;36.80;;
13040;SDS011;6587;42.728;23.288;2023-11-21T07:22:06;56.40;;;33.03;;
13040;SDS011;6587;42.728;23.288;2023-11-21T07:24:34;54.50;;;32.17;;
13040;SDS011;6587;42.728;23.288;2023-11-21T07:27:02;52.10;;;33.33;;
13040;SDS011;6587;42.728;23.288;2023-11-21T07:29:30;44.77;;;28.70;;
13040;SDS011;6587;42.728;23.288;2023-11-21T07:31:58;45.70;;;28.70;;
13040;SDS011;6587;42.728;23.288;2023-11-21T07:34:27;51.53;;;27.77;;
13040;SDS011;6587;42.728;23.288;2023-11-21T07:36:54;54.17;;;27.77;;
13040;SDS011;6587;42.728;23.288;2023-11-21T07:39:20;43.73;;;25.73;;
13040;SDS011;6587;42.728;23.288;2023-11-21T07:41:47;37.43;;;22.17;;
13040;SDS011;6587;42.728;23.288;2023-11-21T07:44:15;39.07;;;22.03;;
13040;SDS011;6587;42.728;23.288;2023-11-21T07:46:43;40.67;;;23.73;;
13040;SDS011;6587;42.728;23.288;2023-11-21T07:49:10;37.17;;;24.53;;
13040;SDS011;6587;42.728;23.288;2023-11-21T07:51:38;39.70;;;21.77;;
13040;SDS011;6587;42.728;23.288;2023-11-21T07:54:05;37.57;;;19.87;;
13040;SDS011;6587;42.728;23.288;2023-11-21T07:56:32;32.07;;;20.03;;
13040;SDS011;6587;42.728;23.288;2023-11-21T07:58:59;34.50;;;19.10;;
13040;SDS011;6587;42.728;23.288;2023-11-21T08:01:26;30.80;;;17.30;;
13040;SDS011;6587;42.728;23.288;2023-11-21T08:03:53;32.60;;;17.97;;
13040;SDS011;6587;42.728;23.288;2023-11-21T08:06:22;29.47;;;16.63;;
13040;SDS011;6587;42.728;23.288;2023-11-21T08:08:52;33.40;;;17.23;;
13040;SDS011;6587;42.728;23.288;2023-11-21T08:11:19;31.10;;;17.23;;
13040;SDS011;6587;42.728;23.288;2023-11-21T08:13:46;33.67;;;19.33;;
13040;SDS011;6587;42.728;23.288;2023-11-21T08:16:13;27.60;;;17.67;;
13040;SDS011;6587;42.728;23.288;2023-11-21T08:18:40;34.77;;;18.10;;
13040;SDS011;6587;42.728;23.288;2023-11-21T08:21:07;33.20;;;19.30;;
13040;SDS011;6587;42.728;23.288;2023-11-21T08:23:34;37.97;;;20.70;;
13040;SDS011;6587;42.728;23.288;2023-11-21T08:26:04;31.07;;;17.70;;
13040;SDS011;6587;42.728;23.288;2023-11-21T08:28:31;31.33;;;18.67;;
13040;SDS011;6587;42.728;23.288;2023-11-21T08:30:58;38.70;;;20.90;;
13040;SDS011;6587;42.728;23.288;2023-11-21T08:33:26;34.97;;;21.20;;
13040;SDS011;6587;42.728;23.288;2023-11-21T08:35:53;33.57;;;21.07;;
13040;SDS011;6587;42.728;23.288;2023-11-21T08:38:20;35.90;;;20.83;;
13040;SDS011;6587;42.728;23.288;2023-11-21T08:40:47;36.23;;;22.30;;
13040;SDS011;6587;42.728;23.288;2023-11-21T08:43:15;36.00;;;21.90;;
13040;SDS011;6587;42.728;23.288;2023-11-21T08:45:45;36.47;;;20.70;;
13040;SDS011;6587;42.728;23.288;2023-11-21T08:48:12;38.03;;;22.23;;
13040;SDS011;6587;42.728;23.288;2023-11-21T08:50:39;35.67;;;21.67;;
13040;SDS011;6587;42.728;23.288;2023-11-21T08:53:05;41.73;;;22.73;;
13040;SDS011;6587;42.728;23.288;2023-11-21T08:55:32;34.53;;;21.10;;
13040;SDS011;6587;42.728;23.288;2023-11-21T08:58:02;37.00;;;21.77;;
13040;SDS011;6587;42.728;23.288;2023-11-21T09:00:31;40.47;;;23.10;;
13040;SDS011;6587;42.728;23.288;2023-11-21T09:02:58;38.40;;;21.67;;
13040;SDS011;6587;42.728;23.288;2023-11-21T09:05:25;41.10;;;22.33;;
13040;SDS011;6587;42.728;23.288;2023-11-21T09:07:52;33.57;;;21.27;;
13040;SDS011;6587;42.728;23.288;2023-11-21T09:10:19;32.60;;;20.10;;
13040;SDS011;6587;42.728;23.288;2023-11-21T09:12:46;35.37;;;20.80;;
13040;SDS011;6587;42.728;23.288;2023-11-21T09:15:12;37.07;;;21.53;;
13040;SDS011;6587;42.728;23.288;2023-11-21T09:17:41;37.40;;;21.97;;
13040;SDS011;6587;42.728;23.288;2023-11-21T09:20:10;34.90;;;21.50;;
13040;SDS011;6587;42.728;23.288;2023-11-21T09:22:37;35.13;;;21.57;;
13040;SDS011;6587;42.728;23.288;2023-11-21T09:25:04;39.03;;;21.70;;
13040;SDS011;6587;42.728;23.288;2023-11-21T09:27:33;43.43;;;22.87;;
13040;SDS011;6587;42.728;23.288;2023-11-21T09:30:00;36.77;;;21.07;;
13040;SDS011;6587;42.728;23.288;2023-11-21T09:32:30;37.30;;;21.03;;
13040;SDS011;6587;42.728;23.288;2023-11-21T09:34:58;44.90;;;22.47;;
13040;SDS011;6587;42.728;23.288;2023-11-21T09:37:27;33.17;;;20.03;;
13040;SDS011;6587;42.728;23.288;2023-11-21T09:39:54;31.00;;;19.23;;
13040;SDS011;6587;42.728;23.288;2023-11-21T09:42:23;35.70;;;20.20;;
13040;SDS011;6587;42.728;23.288;2023-11-21T09:44:54;38.53;;;20.37;;
13040;SDS011;6587;42.728;23.288;2023-11-21T09:47:29;39.27;;;21.47;;
13040;SDS011;6587;42.728;23.288;2023-11-21T09:49:56;39.30;;;21.13;;
13040;SDS011;6587;42.728;23.288;2023-11-21T09:52:28;38.70;;;22.90;;
13040;SDS011;6587;42.728;23.288;2023-11-21T09:54:58;39.23;;;22.80;;
13040;SDS011;6587;42.728;23.288;2023-11-21T09:57:26;37.97;;;25.47;;
13040;SDS011;6587;42.728;23.288;2023-11-21T09:59:54;39.93;;;25.77;;
13040;SDS011;6587;42.728;23.288;2023-11-21T10:02:30;39.83;;;26.57;;
13040;SDS011;6587;42.728;23.288;2023-11-21T10:05:03;45.57;;;26.17;;
13040;SDS011;6587;42.728;23.288;2023-11-21T10:07:32;50.97;;;25.77;;
13040;SDS011;6587;42.728;23.288;2023-11-21T10:10:01;45.17;;;25.20;;
13040;SDS011;6587;42.728;23.288;2023-11-21T10:12:28;36.43;;;21.70;;
13040;SDS011;6587;42.728;23.288;2023-11-21T10:14:57;31.73;;;20.43;;
13040;SDS011;6587;42.728;23.288;2023-11-21T10:17:26;36.70;;;20.33;;
13040;SDS011;6587;42.728;23.288;2023-11-21T10:19:56;34.90;;;19.70;;
13040;SDS011;6587;42.728;23.288;2023-11-21T10:22:24;32.40;;;19.37;;
13040;SDS011;6587;42.728;23.288;2023-11-21T10:24:52;27.10;;;17.67;;
13040;SDS011;6587;42.728;23.288;2023-11-21T10:27:19;28.60;;;18.70;;
13040;SDS011;6587;42.728;23.288;2023-11-21T10:29:46;29.57;;;18.33;;
13040;SDS011;6587;42.728;23.288;2023-11-21T10:32:12;33.67;;;20.53;;
13040;SDS011;6587;42.728;23.288;2023-11-21T10:34:39;37.63;;;22.33;;
13040;SDS011;6587;42.728;23.288;2023-11-21T10:37:11;33.37;;;20.87;;
13040;SDS011;6587;42.728;23.288;2023-11-21T10:39:38;26.87;;;17.70;;
13040;SDS011;6587;42.728;23.288;2023-11-21T10:42:09;26.30;;;17.27;;
13040;SDS011;6587;42.728;23.288;2023-11-21T10:44:36;28.53;;;17.87;;
13040;SDS011;6587;42.728;23.288;2023-11-21T10:47:03;29.37;;;18.10;;
13040;SDS011;6587;42.728;23.288;2023-11-21T10:49:30;27.00;;;17.43;;
13040;SDS011;6587;42.728;23.288;2023-11-21T10:51:57;27.27;;;16.47;;
13040;SDS011;6587;42.728;23.288;2023-11-21T10:54:25;29.63;;;18.63;;
13040;SDS011;6587;42.728;23.288;2023-11-21T10:56:53;34.47;;;18.40;;
13040;SDS011;6587;42.728;23.288;2023-11-21T10:59:25;33.20;;;17.87;;
13040;SDS011;6587;42.728;23.288;2023-11-21T11:01:57;30.57;;;17.10;;
13040;SDS011;6587;42.728;23.288;2023-11-21T11:04:27;26.80;;;17.47;;
13040;SDS011;6587;42.728;23.288;2023-11-21T11:06:54;32.53;;;17.80;;
13040;SDS011;6587;42.728;23.288;2023-11-21T11:09:24;27.20;;;19.17;;
13040;SDS011;6587;42.728;23.288;2023-11-21T11:11:52;32.00;;;19.17;;
13040;SDS011;6587;42.728;23.288;2023-11-21T11:14:20;31.33;;;18.80;;
13040;SDS011;6587;42.728;23.288;2023-11-21T11:16:53;28.47;;;18.50;;
13040;SDS011;6587;42.728;23.288;2023-11-21T11:19:20;34.33;;;19.07;;
13040;SDS011;6587;42.728;23.288;2023-11-21T11:21:49;30.73;;;18.60;;
13040;SDS011;6587;42.728;23.288;2023-11-21T11:24:32;28.80;;;18.37;;
13040;SDS011;6587;42.728;23.288;2023-11-21T11:27:09;31.07;;;19.00;;
13040;SDS011;6587;42.728;23.288;2023-11-21T11:29:43;33.63;;;20.07;;
13040;SDS011;6587;42.728;23.288;2023-11-21T11:32:24;31.63;;;20.07;;
13040;SDS011;6587;42.728;23.288;2023-11-21T11:35:04;33.83;;;20.40;;
13040;SDS011;6587;42.728;23.288;2023-11-21T11:37:36;44.23;;;24.10;;
13040;SDS011;6587;42.728;23.288;2023-11-21T11:40:05;39.10;;;23.63;;
13040;SDS011;6587;42.728;23.288;2023-11-21T11:42:33;37.43;;;21.63;;
13040;SDS011;6587;42.728;23.288;2023-11-21T11:45:01;33.23;;;20.93;;
13040;SDS011;6587;42.728;23.288;2023-11-21T11:47:31;38.00;;;21.13;;
13040;SDS011;6587;42.728;23.288;2023-11-21T11:50:05;28.47;;;20.00;;
13040;SDS011;6587;42.728;23.288;2023-11-21T11:52:39;34.83;;;21.10;;
13040;SDS011;6587;42.728;23.288;2023-11-21T11:55:07;30.07;;;20.67;;
13040;SDS011;6587;42.728;23.288;2023-11-21T11:57:36;36.57;;;22.03;;
13040;SDS011;6587;42.728;23.288;2023-11-21T12:00:08;39.60;;;23.90;;
13040;SDS011;6587;42.728;23.288;2023-11-21T12:02:38;41.17;;;23.80;;
13040;SDS011;6587;42.728;23.288;2023-11-21T12:05:09;44.80;;;23.13;;
13040;SDS011;6587;42.728;23.288;2023-11-21T12:07:48;36.57;;;20.20;;
13040;SDS011;6587;42.728;23.288;2023-11-21T12:10:19;32.53;;;19.73;;
13040;SDS011;6587;42.728;23.288;2023-11-21T12:12:50;30.93;;;19.33;;
13040;SDS011;6587;42.728;23.288;2023-11-21T12:15:18;31.80;;;19.67;;
13040;SDS011;6587;42.728;23.288;2023-11-21T12:17:48;33.87;;;21.13;;
13040;SDS011;6587;42.728;23.288;2023-11-21T12:20:18;33.80;;;21.00;;
13040;SDS011;6587;42.728;23.288;2023-11-21T12:22:46;33.23;;;19.73;;
13040;SDS011;6587;42.728;23.288;2023-11-21T12:25:15;31.20;;;19.87;;
13040;SDS011;6587;42.728;23.288;2023-11-21T12:27:44;33.70;;;19.37;;
13040;SDS011;6587;42.728;23.288;2023-11-21T12:30:12;32.57;;;18.80;;
13040;SDS011;6587;42.728;23.288;2023-11-21T12:32:41;30.43;;;18.77;;
13040;SDS011;6587;42.728;23.288;2023-11-21T12:35:10;31.40;;;19.57;;
13040;SDS011;6587;42.728;23.288;2023-11-21T12:37:37;29.23;;;17.63;;
13040;SDS011;6587;42.728;23.288;2023-11-21T12:40:06;29.07;;;16.87;;
13040;SDS011;6587;42.728;23.288;2023-11-21T12:42:37;26.87;;;16.10;;
13040;SDS011;6587;42.728;23.288;2023-11-21T12:45:09;28.63;;;17.73;;
13040;SDS011;6587;42.728;23.288;2023-11-21T12:47:45;27.57;;;17.80;;
13040;SDS011;6587;42.728;23.288;2023-11-21T12:50:14;41.87;;;25.70;;
13040;SDS011;6587;42.728;23.288;2023-11-21T12:52:42;39.00;;;27.37;;
13040;SDS011;6587;42.728;23.288;2023-11-21T12:55:13;36.17;;;23.80;;
13040;SDS011;6587;42.728;23.288;2023-11-21T12:57:45;35.90;;;22.50;;
13040;SDS011;6587;42.728;23.288;2023-11-21T13:00:12;32.47;;;20.67;;
13040;SDS011;6587;42.728;23.288;2023-11-21T13:02:53;31.77;;;20.03;;
13040;SDS011;6587;42.728;23.288;2023-11-21T13:05:28;32.10;;;19.33;;
13040;SDS011;6587;42.728;23.288;2023-11-21T13:07:56;30.33;;;19.17;;
13040;SDS011;6587;42.728;23.288;2023-11-21T13:10:25;35.37;;;20.10;;
13040;SDS011;6587;42.728;23.288;2023-11-21T13:12:56;33.77;;;20.90;;
13040;SDS011;6587;42.728;23.288;2023-11-21T13:15:25;36.17;;;22.97;;
13040;SDS011;6587;42.728;23.288;2023-11-21T13:17:53;37.03;;;23.43;;
13040;SDS011;6587;42.728;23.288;2023-11-21T13:20:21;44.50;;;28.23;;
13040;SDS011;6587;42.728;23.288;2023-11-21T13:22:51;55.80;;;34.07;;
13040;SDS011;6587;42.728;23.288;2023-11-21T13:25:23;40.47;;;26.33;;
13040;SDS011;6587;42.728;23.288;2023-11-21T13:27:52;55.67;;;31.37;;
13040;SDS011;6587;42.728;23.288;2023-11-21T13:30:19;51.17;;;28.40;;
13040;SDS011;6587;42.728;23.288;2023-11-21T13:32:51;38.37;;;25.70;;
13040;SDS011;6587;42.728;23.288;2023-11-21T13:35:18;40.03;;;25.13;;
13040;SDS011;6587;42.728;23.288;2023-11-21T13:38:02;48.80;;;26.30;;
13040;SDS011;6587;42.728;23.288;2023-11-21T13:40:31;55.47;;;29.60;;
13040;SDS011;6587;42.728;23.288;2023-11-21T13:43:05;46.87;;;26.80;;
13040;SDS011;6587;42.728;23.288;2023-11-21T13:45:35;53.27;;;29.97;;
13040;SDS011;6587;42.728;23.288;2023-11-21T13:48:02;54.63;;;29.87;;
13040;SDS011;6587;42.728;23.288;2023-11-21T13:50:32;41.40;;;24.87;;
13040;SDS011;6587;42.728;23.288;2023-11-21T13:53:02;40.60;;;25.27;;
13040;SDS011;6587;42.728;23.288;2023-11-21T13:55:36;42.53;;;24.73;;
13040;SDS011;6587;42.728;23.288;2023-11-21T13:58:05;44.53;;;26.00;;
13040;SDS011;6587;42.728;23.288;2023-11-21T14:00:35;46.10;;;26.47;;
13040;SDS011;6587;42.728;23.288;2023-11-21T14:03:10;57.73;;;31.87;;
13040;SDS011;6587;42.728;23.288;2023-11-21T14:05:44;60.33;;;35.53;;
13040;SDS011;6587;42.728;23.288;2023-11-21T14:08:14;58.13;;;35.77;;
13040;SDS011;6587;42.728;23.288;2023-11-21T14:10:45;70.60;;;40.90;;
13040;SDS011;6587;42.728;23.288;2023-11-21T14:13:16;82.47;;;43.83;;
13040;SDS011;6587;42.728;23.288;2023-11-21T14:15:43;76.77;;;44.00;;
13040;SDS011;6587;42.728;23.288;2023-11-21T14:18:11;76.60;;;44.13;;
13040;SDS011;6587;42.728;23.288;2023-11-21T14:20:42;86.43;;;47.17;;
13040;SDS011;6587;42.728;23.288;2023-11-21T14:23:09;94.77;;;52.93;;
13040;SDS011;6587;42.728;23.288;2023-11-21T14:25:38;95.27;;;54.53;;
13040;SDS011;6587;42.728;23.288;2023-11-21T14:28:07;99.67;;;54.87;;